sensor_id;sensor_type;location;lat;lon;timestamp;P1;durP1;ratioP1;P2;durP2;ratioP2
11496;SDS011;5805;51.542;7.230;2023-04-20T00:01:31;4.75;;;2.00;;
11496;SDS011;5805;51.542;7.230;2023-04-20T00:03:56;6.78;;;2.00;;
11496;SDS011;5805;51.542;7.230;2023-04-20T00:06:23;4.53;;;2.53;;
11496;SDS011;5805;51.542;7.230;2023-04-20T00:08:50;2.63;;;1.90;;
11496;SDS011;5805;51.542;7.230;2023-04-20T00:11:15;4.95;;;2.47;;
11496;SDS011;5805;51.542;7.230;2023-04-20T00:13:41;4.55;;;2.15;;
11496;SDS011;5805;51.542;7.230;2023-04-20T00:16:07;3.47;;;2.03;;
11496;SDS011;5805;51.542;7.230;2023-04-20T00:18:34;2.28;;;1.85;;
11496;SDS011;5805;51.542;7.230;2023-04-20T00:21:00;4.72;;;2.10;;
11496;SDS011;5805;51.542;7.230;2023-04-20T00:23:25;2.47;;;1.88;;
11496;SDS011;5805;51.542;7.230;2023-04-20T00:25:51;7.07;;;2.08;;
11496;SDS011;5805;51.542;7.230;2023-04-20T00:28:17;2.08;;;1.88;;
11496;SDS011;5805;51.542;7.230;2023-04-20T00:30:42;3.03;;;1.67;;
11496;SDS011;5805;51.542;7.230;2023-04-20T00:33:08;4.40;;;1.88;;
11496;SDS011;5805;51.542;7.230;2023-04-20T00:35:35;2.88;;;1.90;;
11496;SDS011;5805;51.542;7.230;2023-04-20T00:38:01;2.45;;;1.73;;
11496;SDS011;5805;51.542;7.230;2023-04-20T00:40:26;3.53;;;1.90;;
11496;SDS011;5805;51.542;7.230;2023-04-20T00:42:52;2.97;;;1.73;;
11496;SDS011;5805;51.542;7.230;2023-04-20T00:45:18;3.35;;;1.80;;
11496;SDS011;5805;51.542;7.230;2023-04-20T00:47:43;4.30;;;1.65;;
11496;SDS011;5805;51.542;7.230;2023-04-20T00:50:09;2.47;;;1.60;;
11496;SDS011;5805;51.542;7.230;2023-04-20T00:52:36;2.95;;;1.70;;
11496;SDS011;5805;51.542;7.230;2023-04-20T00:55:03;3.30;;;1.80;;
11496;SDS011;5805;51.542;7.230;2023-04-20T00:57:30;2.78;;;1.70;;
11496;SDS011;5805;51.542;7.230;2023-04-20T00:59:56;3.53;;;1.73;;
11496;SDS011;5805;51.542;7.230;2023-04-20T01:02:22;3.38;;;1.77;;
11496;SDS011;5805;51.542;7.230;2023-04-20T01:04:48;4.45;;;2.05;;
11496;SDS011;5805;51.542;7.230;2023-04-20T01:07:13;3.60;;;1.83;;
11496;SDS011;5805;51.542;7.230;2023-04-20T01:09:41;2.67;;;1.92;;
11496;SDS011;5805;51.542;7.230;2023-04-20T01:12:08;5.18;;;1.83;;
11496;SDS011;5805;51.542;7.230;2023-04-20T01:14:34;2.00;;;1.80;;
11496;SDS011;5805;51.542;7.230;2023-04-20T01:17:00;2.60;;;1.73;;
11496;SDS011;5805;51.542;7.230;2023-04-20T01:19:25;2.20;;;1.50;;
11496;SDS011;5805;51.542;7.230;2023-04-20T01:21:51;3.70;;;2.25;;
11496;SDS011;5805;51.542;7.230;2023-04-20T01:24:18;3.90;;;1.77;;
11496;SDS011;5805;51.542;7.230;2023-04-20T01:26:44;2.20;;;1.50;;
11496;SDS011;5805;51.542;7.230;2023-04-20T01:29:09;3.60;;;1.55;;
11496;SDS011;5805;51.542;7.230;2023-04-20T01:31:35;2.35;;;1.50;;
11496;SDS011;5805;51.542;7.230;2023-04-20T01:34:01;4.18;;;1.80;;
11496;SDS011;5805;51.542;7.230;2023-04-20T01:36:26;2.45;;;1.85;;
11496;SDS011;5805;51.542;7.230;2023-04-20T01:38:52;4.13;;;1.70;;
11496;SDS011;5805;51.542;7.230;2023-04-20T01:41:19;4.93;;;1.73;;
11496;SDS011;5805;51.542;7.230;2023-04-20T01:43:45;2.95;;;2.00;;
11496;SDS011;5805;51.542;7.230;2023-04-20T01:46:10;3.20;;;1.75;;
11496;SDS011;5805;51.542;7.230;2023-04-20T01:48:36;3.88;;;1.73;;
11496;SDS011;5805;51.542;7.230;2023-04-20T01:51:02;5.60;;;2.00;;
11496;SDS011;5805;51.542;7.230;2023-04-20T01:53:28;3.58;;;1.85;;
11496;SDS011;5805;51.542;7.230;2023-04-20T01:55:53;5.82;;;1.70;;
11496;SDS011;5805;51.542;7.230;2023-04-20T01:58:20;3.20;;;1.70;;
11496;SDS011;5805;51.542;7.230;2023-04-20T02:00:46;2.97;;;1.50;;
11496;SDS011;5805;51.542;7.230;2023-04-20T02:03:12;3.95;;;1.70;;
11496;SDS011;5805;51.542;7.230;2023-04-20T02:05:37;3.50;;;1.80;;
11496;SDS011;5805;51.542;7.230;2023-04-20T02:08:03;5.55;;;1.80;;
11496;SDS011;5805;51.542;7.230;2023-04-20T02:10:29;2.55;;;2.00;;
11496;SDS011;5805;51.542;7.230;2023-04-20T02:12:55;1.90;;;1.52;;
11496;SDS011;5805;51.542;7.230;2023-04-20T02:15:22;2.25;;;1.98;;
11496;SDS011;5805;51.542;7.230;2023-04-20T02:17:48;3.72;;;2.10;;
11496;SDS011;5805;51.542;7.230;2023-04-20T02:20:13;3.58;;;1.90;;
11496;SDS011;5805;51.542;7.230;2023-04-20T02:22:39;5.97;;;1.92;;
11496;SDS011;5805;51.542;7.230;2023-04-20T02:25:05;6.03;;;1.90;;
11496;SDS011;5805;51.542;7.230;2023-04-20T02:27:32;2.20;;;1.52;;
11496;SDS011;5805;51.542;7.230;2023-04-20T02:29:58;4.60;;;2.00;;
11496;SDS011;5805;51.542;7.230;2023-04-20T02:32:25;3.53;;;2.03;;
11496;SDS011;5805;51.542;7.230;2023-04-20T02:34:51;6.50;;;2.40;;
11496;SDS011;5805;51.542;7.230;2023-04-20T02:37:17;3.63;;;1.92;;
11496;SDS011;5805;51.542;7.230;2023-04-20T02:39:43;3.00;;;1.70;;
11496;SDS011;5805;51.542;7.230;2023-04-20T02:42:08;6.03;;;1.98;;
11496;SDS011;5805;51.542;7.230;2023-04-20T02:44:34;4.03;;;2.35;;
11496;SDS011;5805;51.542;7.230;2023-04-20T02:47:00;4.05;;;2.08;;
11496;SDS011;5805;51.542;7.230;2023-04-20T02:49:27;5.60;;;2.20;;
11496;SDS011;5805;51.542;7.230;2023-04-20T02:51:52;3.38;;;2.10;;
11496;SDS011;5805;51.542;7.230;2023-04-20T02:54:18;4.20;;;1.98;;
11496;SDS011;5805;51.542;7.230;2023-04-20T02:56:44;6.75;;;2.10;;
11496;SDS011;5805;51.542;7.230;2023-04-20T02:59:09;2.35;;;1.77;;
11496;SDS011;5805;51.542;7.230;2023-04-20T03:01:35;5.22;;;2.08;;
11496;SDS011;5805;51.542;7.230;2023-04-20T03:04:01;3.25;;;1.90;;
11496;SDS011;5805;51.542;7.230;2023-04-20T03:06:28;3.17;;;2.28;;
11496;SDS011;5805;51.542;7.230;2023-04-20T03:08:54;3.03;;;2.00;;
11496;SDS011;5805;51.542;7.230;2023-04-20T03:11:19;4.40;;;2.35;;
11496;SDS011;5805;51.542;7.230;2023-04-20T03:13:45;3.40;;;2.20;;
11496;SDS011;5805;51.542;7.230;2023-04-20T03:16:10;2.85;;;2.00;;
11496;SDS011;5805;51.542;7.230;2023-04-20T03:18:36;3.38;;;2.45;;
11496;SDS011;5805;51.542;7.230;2023-04-20T03:21:02;4.53;;;2.80;;
11496;SDS011;5805;51.542;7.230;2023-04-20T03:23:29;7.25;;;2.47;;
11496;SDS011;5805;51.542;7.230;2023-04-20T03:25:55;3.58;;;2.58;;
11496;SDS011;5805;51.542;7.230;2023-04-20T03:28:21;4.63;;;2.30;;
11496;SDS011;5805;51.542;7.230;2023-04-20T03:30:46;4.00;;;2.58;;
11496;SDS011;5805;51.542;7.230;2023-04-20T03:33:12;4.50;;;2.80;;
11496;SDS011;5805;51.542;7.230;2023-04-20T03:35:38;6.88;;;2.65;;
11496;SDS011;5805;51.542;7.230;2023-04-20T03:38:03;4.65;;;2.78;;
11496;SDS011;5805;51.542;7.230;2023-04-20T03:40:30;3.20;;;2.40;;
11496;SDS011;5805;51.542;7.230;2023-04-20T03:42:56;3.92;;;2.53;;
11496;SDS011;5805;51.542;7.230;2023-04-20T03:45:22;5.40;;;2.08;;
11496;SDS011;5805;51.542;7.230;2023-04-20T03:47:47;3.80;;;2.30;;
11496;SDS011;5805;51.542;7.230;2023-04-20T03:50:13;2.35;;;1.98;;
11496;SDS011;5805;51.542;7.230;2023-04-20T03:52:39;3.92;;;2.25;;
11496;SDS011;5805;51.542;7.230;2023-04-20T03:55:05;3.10;;;2.20;;
11496;SDS011;5805;51.542;7.230;2023-04-20T03:57:33;3.92;;;2.15;;
11496;SDS011;5805;51.542;7.230;2023-04-20T03:59:59;4.10;;;2.53;;
11496;SDS011;5805;51.542;7.230;2023-04-20T04:02:24;1.63;;;1.40;;
11496;SDS011;5805;51.542;7.230;2023-04-20T04:04:50;7.43;;;2.55;;
11496;SDS011;5805;51.542;7.230;2023-04-20T04:07:16;4.53;;;2.65;;
11496;SDS011;5805;51.542;7.230;2023-04-20T04:09:41;3.15;;;2.40;;
11496;SDS011;5805;51.542;7.230;2023-04-20T04:12:07;3.53;;;2.47;;
11496;SDS011;5805;51.542;7.230;2023-04-20T04:14:34;3.20;;;2.38;;
11496;SDS011;5805;51.542;7.230;2023-04-20T04:17:00;3.13;;;2.28;;
11496;SDS011;5805;51.542;7.230;2023-04-20T04:19:25;3.67;;;2.25;;
11496;SDS011;5805;51.542;7.230;2023-04-20T04:21:51;4.63;;;2.38;;
11496;SDS011;5805;51.542;7.230;2023-04-20T04:24:17;2.88;;;2.13;;
11496;SDS011;5805;51.542;7.230;2023-04-20T04:26:42;3.55;;;2.40;;
11496;SDS011;5805;51.542;7.230;2023-04-20T04:29:08;2.42;;;2.00;;
11496;SDS011;5805;51.542;7.230;2023-04-20T04:31:35;4.60;;;2.05;;
11496;SDS011;5805;51.542;7.230;2023-04-20T04:34:01;6.00;;;2.25;;
11496;SDS011;5805;51.542;7.230;2023-04-20T04:36:26;4.40;;;2.10;;
11496;SDS011;5805;51.542;7.230;2023-04-20T04:38:52;4.35;;;1.98;;
11496;SDS011;5805;51.542;7.230;2023-04-20T04:41:18;3.55;;;2.70;;
11496;SDS011;5805;51.542;7.230;2023-04-20T04:43:43;2.45;;;2.25;;
11496;SDS011;5805;51.542;7.230;2023-04-20T04:46:09;3.28;;;2.15;;
11496;SDS011;5805;51.542;7.230;2023-04-20T04:48:37;3.80;;;2.50;;
11496;SDS011;5805;51.542;7.230;2023-04-20T04:51:03;3.58;;;2.28;;
11496;SDS011;5805;51.542;7.230;2023-04-20T04:53:28;4.78;;;2.05;;
11496;SDS011;5805;51.542;7.230;2023-04-20T04:55:54;2.90;;;2.55;;
11496;SDS011;5805;51.542;7.230;2023-04-20T04:58:20;5.65;;;2.70;;
11496;SDS011;5805;51.542;7.230;2023-04-20T05:00:45;4.80;;;2.65;;
11496;SDS011;5805;51.542;7.230;2023-04-20T05:03:11;3.65;;;2.15;;
11496;SDS011;5805;51.542;7.230;2023-04-20T05:05:38;5.55;;;2.50;;
11496;SDS011;5805;51.542;7.230;2023-04-20T05:08:04;3.17;;;2.10;;
11496;SDS011;5805;51.542;7.230;2023-04-20T05:10:30;5.32;;;2.33;;
11496;SDS011;5805;51.542;7.230;2023-04-20T05:12:55;4.22;;;2.60;;
11496;SDS011;5805;51.542;7.230;2023-04-20T05:15:21;3.15;;;2.03;;
11496;SDS011;5805;51.542;7.230;2023-04-20T05:17:47;2.72;;;2.15;;
11496;SDS011;5805;51.542;7.230;2023-04-20T05:20:12;2.83;;;2.28;;
11496;SDS011;5805;51.542;7.230;2023-04-20T05:22:40;4.78;;;2.40;;
11496;SDS011;5805;51.542;7.230;2023-04-20T05:25:06;4.32;;;2.05;;
11496;SDS011;5805;51.542;7.230;2023-04-20T05:27:32;3.63;;;2.30;;
11496;SDS011;5805;51.542;7.230;2023-04-20T05:29:58;3.28;;;2.35;;
11496;SDS011;5805;51.542;7.230;2023-04-20T05:32:24;4.43;;;2.45;;
11496;SDS011;5805;51.542;7.230;2023-04-20T05:34:49;5.53;;;2.42;;
11496;SDS011;5805;51.542;7.230;2023-04-20T05:37:15;3.58;;;2.38;;
11496;SDS011;5805;51.542;7.230;2023-04-20T05:39:42;3.83;;;2.22;;
11496;SDS011;5805;51.542;7.230;2023-04-20T05:42:08;3.60;;;2.00;;
11496;SDS011;5805;51.542;7.230;2023-04-20T05:44:33;4.95;;;2.78;;
11496;SDS011;5805;51.542;7.230;2023-04-20T05:46:59;5.50;;;2.42;;
11496;SDS011;5805;51.542;7.230;2023-04-20T05:49:25;3.70;;;2.75;;
11496;SDS011;5805;51.542;7.230;2023-04-20T05:51:50;3.65;;;2.42;;
11496;SDS011;5805;51.542;7.230;2023-04-20T05:54:16;7.20;;;2.80;;
11496;SDS011;5805;51.542;7.230;2023-04-20T05:56:43;3.22;;;2.40;;
11496;SDS011;5805;51.542;7.230;2023-04-20T05:59:09;6.22;;;2.80;;
11496;SDS011;5805;51.542;7.230;2023-04-20T06:01:34;4.60;;;2.90;;
11496;SDS011;5805;51.542;7.230;2023-04-20T06:04:00;6.13;;;2.90;;
11496;SDS011;5805;51.542;7.230;2023-04-20T06:06:26;8.32;;;2.97;;
11496;SDS011;5805;51.542;7.230;2023-04-20T06:08:52;4.63;;;3.45;;
11496;SDS011;5805;51.542;7.230;2023-04-20T06:11:17;4.80;;;2.60;;
11496;SDS011;5805;51.542;7.230;2023-04-20T06:13:44;4.07;;;3.00;;
11496;SDS011;5805;51.542;7.230;2023-04-20T06:16:10;11.43;;;3.75;;
11496;SDS011;5805;51.542;7.230;2023-04-20T06:18:36;4.55;;;3.13;;
11496;SDS011;5805;51.542;7.230;2023-04-20T06:21:02;3.63;;;2.67;;
11496;SDS011;5805;51.542;7.230;2023-04-20T06:23:28;4.47;;;3.50;;
11496;SDS011;5805;51.542;7.230;2023-04-20T06:25:53;6.38;;;4.05;;
11496;SDS011;5805;51.542;7.230;2023-04-20T06:28:19;8.10;;;3.97;;
11496;SDS011;5805;51.542;7.230;2023-04-20T06:30:46;8.40;;;3.63;;
11496;SDS011;5805;51.542;7.230;2023-04-20T06:33:12;9.63;;;4.45;;
11496;SDS011;5805;51.542;7.230;2023-04-20T06:35:38;5.55;;;4.03;;
11496;SDS011;5805;51.542;7.230;2023-04-20T06:38:04;8.43;;;4.10;;
11496;SDS011;5805;51.542;7.230;2023-04-20T06:40:29;5.97;;;3.78;;
11496;SDS011;5805;51.542;7.230;2023-04-20T06:42:55;6.30;;;3.97;;
11496;SDS011;5805;51.542;7.230;2023-04-20T06:45:21;4.57;;;3.53;;
11496;SDS011;5805;51.542;7.230;2023-04-20T06:47:48;6.45;;;3.45;;
11496;SDS011;5805;51.542;7.230;2023-04-20T06:50:13;3.75;;;2.95;;
11496;SDS011;5805;51.542;7.230;2023-04-20T06:52:39;5.60;;;2.97;;
11496;SDS011;5805;51.542;7.230;2023-04-20T06:55:05;3.60;;;3.20;;
11496;SDS011;5805;51.542;7.230;2023-04-20T06:57:32;3.95;;;2.90;;
11496;SDS011;5805;51.542;7.230;2023-04-20T06:59:57;4.55;;;3.00;;
11496;SDS011;5805;51.542;7.230;2023-04-20T07:02:23;6.28;;;3.00;;
11496;SDS011;5805;51.542;7.230;2023-04-20T07:04:50;6.35;;;3.00;;
11496;SDS011;5805;51.542;7.230;2023-04-20T07:07:16;4.63;;;3.35;;
11496;SDS011;5805;51.542;7.230;2023-04-20T07:09:41;3.00;;;2.70;;
11496;SDS011;5805;51.542;7.230;2023-04-20T07:12:07;4.88;;;2.40;;
11496;SDS011;5805;51.542;7.230;2023-04-20T07:14:33;6.68;;;2.92;;
11496;SDS011;5805;51.542;7.230;2023-04-20T07:16:59;4.18;;;2.92;;
11496;SDS011;5805;51.542;7.230;2023-04-20T07:19:24;7.22;;;3.72;;
11496;SDS011;5805;51.542;7.230;2023-04-20T07:21:51;4.00;;;3.00;;
11496;SDS011;5805;51.542;7.230;2023-04-20T07:24:17;7.10;;;2.95;;
11496;SDS011;5805;51.542;7.230;2023-04-20T07:26:43;3.75;;;3.20;;
11496;SDS011;5805;51.542;7.230;2023-04-20T07:29:08;4.38;;;3.10;;
11496;SDS011;5805;51.542;7.230;2023-04-20T07:31:34;5.63;;;3.47;;
11496;SDS011;5805;51.542;7.230;2023-04-20T07:34:00;4.97;;;3.28;;
11496;SDS011;5805;51.542;7.230;2023-04-20T07:36:25;5.40;;;3.42;;
11496;SDS011;5805;51.542;7.230;2023-04-20T07:38:52;5.63;;;2.75;;
11496;SDS011;5805;51.542;7.230;2023-04-20T07:41:18;5.13;;;3.42;;
11496;SDS011;5805;51.542;7.230;2023-04-20T07:43:44;5.10;;;3.03;;
11496;SDS011;5805;51.542;7.230;2023-04-20T07:46:09;5.03;;;3.20;;
11496;SDS011;5805;51.542;7.230;2023-04-20T07:48:43;3.17;;;2.63;;
11496;SDS011;5805;51.542;7.230;2023-04-20T07:51:09;4.97;;;3.00;;
11496;SDS011;5805;51.542;7.230;2023-04-20T07:53:34;5.97;;;2.70;;
11496;SDS011;5805;51.542;7.230;2023-04-20T07:56:01;5.90;;;3.22;;
11496;SDS011;5805;51.542;7.230;2023-04-20T07:58:27;5.53;;;3.00;;
11496;SDS011;5805;51.542;7.230;2023-04-20T08:00:53;4.28;;;3.00;;
11496;SDS011;5805;51.542;7.230;2023-04-20T08:03:18;4.70;;;3.35;;
11496;SDS011;5805;51.542;7.230;2023-04-20T08:05:44;3.92;;;3.10;;
11496;SDS011;5805;51.542;7.230;2023-04-20T08:08:10;7.13;;;4.95;;
11496;SDS011;5805;51.542;7.230;2023-04-20T08:10:36;6.75;;;3.97;;
11496;SDS011;5805;51.542;7.230;2023-04-20T08:13:03;7.40;;;3.60;;
11496;SDS011;5805;51.542;7.230;2023-04-20T08:15:28;11.15;;;4.35;;
11496;SDS011;5805;51.542;7.230;2023-04-20T08:17:54;6.70;;;4.32;;
11496;SDS011;5805;51.542;7.230;2023-04-20T08:20:20;3.70;;;3.33;;
11496;SDS011;5805;51.542;7.230;2023-04-20T08:22:46;5.68;;;4.22;;
11496;SDS011;5805;51.542;7.230;2023-04-20T08:25:11;4.75;;;4.05;;
11496;SDS011;5805;51.542;7.230;2023-04-20T08:27:37;5.18;;;4.10;;
11496;SDS011;5805;51.542;7.230;2023-04-20T08:30:05;5.95;;;3.60;;
11496;SDS011;5805;51.542;7.230;2023-04-20T08:32:31;4.00;;;3.47;;
11496;SDS011;5805;51.542;7.230;2023-04-20T08:34:57;5.88;;;4.75;;
11496;SDS011;5805;51.542;7.230;2023-04-20T08:37:23;5.03;;;4.30;;
11496;SDS011;5805;51.542;7.230;2023-04-20T08:39:48;6.20;;;4.68;;
11496;SDS011;5805;51.542;7.230;2023-04-20T08:42:14;6.22;;;4.75;;
11496;SDS011;5805;51.542;7.230;2023-04-20T08:44:40;6.72;;;4.95;;
11496;SDS011;5805;51.542;7.230;2023-04-20T08:47:07;7.47;;;4.88;;
11496;SDS011;5805;51.542;7.230;2023-04-20T08:49:33;5.70;;;4.55;;
11496;SDS011;5805;51.542;7.230;2023-04-20T08:52:00;6.63;;;4.20;;
11496;SDS011;5805;51.542;7.230;2023-04-20T08:54:26;5.50;;;4.47;;
11496;SDS011;5805;51.542;7.230;2023-04-20T08:56:51;7.90;;;4.95;;
11496;SDS011;5805;51.542;7.230;2023-04-20T08:59:18;6.93;;;5.45;;
11496;SDS011;5805;51.542;7.230;2023-04-20T09:01:43;6.93;;;5.15;;
11496;SDS011;5805;51.542;7.230;2023-04-20T09:04:17;7.80;;;5.47;;
11496;SDS011;5805;51.542;7.230;2023-04-20T09:06:46;9.02;;;5.78;;
11496;SDS011;5805;51.542;7.230;2023-04-20T09:09:13;8.38;;;6.05;;
11496;SDS011;5805;51.542;7.230;2023-04-20T09:11:38;7.88;;;6.18;;
11496;SDS011;5805;51.542;7.230;2023-04-20T09:14:05;7.63;;;6.43;;
11496;SDS011;5805;51.542;7.230;2023-04-20T09:16:32;7.13;;;6.18;;
11496;SDS011;5805;51.542;7.230;2023-04-20T09:18:58;8.32;;;6.70;;
11496;SDS011;5805;51.542;7.230;2023-04-20T09:21:25;7.07;;;5.82;;
11496;SDS011;5805;51.542;7.230;2023-04-20T09:23:55;8.93;;;7.32;;
11496;SDS011;5805;51.542;7.230;2023-04-20T09:26:21;8.07;;;5.30;;
11496;SDS011;5805;51.542;7.230;2023-04-20T09:28:47;8.05;;;5.20;;
11496;SDS011;5805;51.542;7.230;2023-04-20T09:31:16;6.05;;;5.38;;
11496;SDS011;5805;51.542;7.230;2023-04-20T09:33:42;7.13;;;5.05;;
11496;SDS011;5805;51.542;7.230;2023-04-20T09:36:08;5.50;;;4.75;;
11496;SDS011;5805;51.542;7.230;2023-04-20T09:38:35;3.50;;;3.20;;
11496;SDS011;5805;51.542;7.230;2023-04-20T09:41:01;4.80;;;3.90;;
11496;SDS011;5805;51.542;7.230;2023-04-20T09:43:27;5.07;;;3.85;;
11496;SDS011;5805;51.542;7.230;2023-04-20T09:45:53;2.60;;;2.40;;
11496;SDS011;5805;51.542;7.230;2023-04-20T09:48:19;4.03;;;3.58;;
11496;SDS011;5805;51.542;7.230;2023-04-20T09:50:46;3.35;;;3.05;;
11496;SDS011;5805;51.542;7.230;2023-04-20T09:53:12;2.50;;;2.30;;
11496;SDS011;5805;51.542;7.230;2023-04-20T09:55:44;3.00;;;2.70;;
11496;SDS011;5805;51.542;7.230;2023-04-20T09:58:10;2.63;;;2.28;;
11496;SDS011;5805;51.542;7.230;2023-04-20T10:00:36;2.78;;;2.58;;
11496;SDS011;5805;51.542;7.230;2023-04-20T10:03:02;2.92;;;2.67;;
11496;SDS011;5805;51.542;7.230;2023-04-20T10:05:31;2.50;;;2.30;;
11496;SDS011;5805;51.542;7.230;2023-04-20T10:07:58;3.15;;;2.85;;
11496;SDS011;5805;51.542;7.230;2023-04-20T10:10:24;3.22;;;2.88;;
11496;SDS011;5805;51.542;7.230;2023-04-20T10:12:52;3.40;;;2.88;;
11496;SDS011;5805;51.542;7.230;2023-04-20T10:15:19;2.85;;;2.65;;
11496;SDS011;5805;51.542;7.230;2023-04-20T10:17:45;3.20;;;2.90;;
11496;SDS011;5805;51.542;7.230;2023-04-20T10:20:17;4.40;;;3.47;;
11496;SDS011;5805;51.542;7.230;2023-04-20T10:22:44;3.35;;;3.10;;
11496;SDS011;5805;51.542;7.230;2023-04-20T10:25:13;3.50;;;3.20;;
11496;SDS011;5805;51.542;7.230;2023-04-20T10:27:39;3.70;;;3.38;;
11496;SDS011;5805;51.542;7.230;2023-04-20T10:30:19;4.78;;;3.45;;
11496;SDS011;5805;51.542;7.230;2023-04-20T10:32:45;3.50;;;3.20;;
11496;SDS011;5805;51.542;7.230;2023-04-20T10:35:11;3.08;;;2.80;;
11496;SDS011;5805;51.542;7.230;2023-04-20T10:37:45;3.70;;;3.40;;
11496;SDS011;5805;51.542;7.230;2023-04-20T10:40:11;3.20;;;2.90;;
11496;SDS011;5805;51.542;7.230;2023-04-20T10:42:40;3.33;;;3.03;;
11496;SDS011;5805;51.542;7.230;2023-04-20T10:45:08;6.15;;;2.90;;
11496;SDS011;5805;51.542;7.230;2023-04-20T10:47:34;3.47;;;3.03;;
11496;SDS011;5805;51.542;7.230;2023-04-20T10:50:07;3.83;;;3.53;;
11496;SDS011;5805;51.542;7.230;2023-04-20T10:52:33;3.20;;;2.90;;
11496;SDS011;5805;51.542;7.230;2023-04-20T10:55:00;2.70;;;2.50;;
11496;SDS011;5805;51.542;7.230;2023-04-20T10:57:26;3.72;;;2.90;;
11496;SDS011;5805;51.542;7.230;2023-04-20T10:59:51;4.15;;;3.00;;
11496;SDS011;5805;51.542;7.230;2023-04-20T11:02:18;3.30;;;2.78;;
11496;SDS011;5805;51.542;7.230;2023-04-20T11:04:44;3.00;;;2.53;;
11496;SDS011;5805;51.542;7.230;2023-04-20T11:07:10;2.97;;;2.78;;
11496;SDS011;5805;51.542;7.230;2023-04-20T11:09:35;3.00;;;2.55;;
11496;SDS011;5805;51.542;7.230;2023-04-20T11:12:02;2.92;;;2.72;;
11496;SDS011;5805;51.542;7.230;2023-04-20T11:14:29;2.60;;;2.40;;
11496;SDS011;5805;51.542;7.230;2023-04-20T11:16:55;2.60;;;2.40;;
11496;SDS011;5805;51.542;7.230;2023-04-20T11:19:23;2.67;;;2.45;;
11496;SDS011;5805;51.542;7.230;2023-04-20T11:21:50;3.10;;;2.47;;
11496;SDS011;5805;51.542;7.230;2023-04-20T11:24:16;3.15;;;2.20;;
11496;SDS011;5805;51.542;7.230;2023-04-20T11:26:42;2.55;;;2.30;;
11496;SDS011;5805;51.542;7.230;2023-04-20T11:29:08;4.97;;;1.77;;
11496;SDS011;5805;51.542;7.230;2023-04-20T11:31:33;2.00;;;1.80;;
11496;SDS011;5805;51.542;7.230;2023-04-20T11:33:59;2.55;;;2.35;;
11496;SDS011;5805;51.542;7.230;2023-04-20T11:36:26;2.50;;;2.30;;
11496;SDS011;5805;51.542;7.230;2023-04-20T11:38:53;2.90;;;2.10;;
11496;SDS011;5805;51.542;7.230;2023-04-20T11:41:19;2.80;;;2.50;;
11496;SDS011;5805;51.542;7.230;2023-04-20T11:43:44;3.00;;;2.70;;
11496;SDS011;5805;51.542;7.230;2023-04-20T11:46:14;2.90;;;2.60;;
11496;SDS011;5805;51.542;7.230;2023-04-20T11:48:40;2.97;;;2.60;;
11496;SDS011;5805;51.542;7.230;2023-04-20T11:51:06;2.70;;;2.50;;
11496;SDS011;5805;51.542;7.230;2023-04-20T11:53:33;4.05;;;2.40;;
11496;SDS011;5805;51.542;7.230;2023-04-20T11:55:58;2.72;;;2.50;;
11496;SDS011;5805;51.542;7.230;2023-04-20T11:58:24;3.17;;;2.88;;
11496;SDS011;5805;51.542;7.230;2023-04-20T12:00:50;3.00;;;2.70;;
11496;SDS011;5805;51.542;7.230;2023-04-20T12:03:15;2.85;;;2.65;;
11496;SDS011;5805;51.542;7.230;2023-04-20T12:05:41;3.10;;;2.80;;
11496;SDS011;5805;51.542;7.230;2023-04-20T12:08:07;5.32;;;2.75;;
11496;SDS011;5805;51.542;7.230;2023-04-20T12:10:34;6.20;;;3.33;;
11496;SDS011;5805;51.542;7.230;2023-04-20T12:13:00;5.78;;;3.08;;
11496;SDS011;5805;51.542;7.230;2023-04-20T12:15:25;3.35;;;3.05;;
11496;SDS011;5805;51.542;7.230;2023-04-20T12:17:51;2.90;;;2.60;;
11496;SDS011;5805;51.542;7.230;2023-04-20T12:20:17;3.08;;;2.80;;
11496;SDS011;5805;51.542;7.230;2023-04-20T12:22:43;3.28;;;2.65;;
11496;SDS011;5805;51.542;7.230;2023-04-20T12:25:08;3.70;;;3.05;;
11496;SDS011;5805;51.542;7.230;2023-04-20T12:27:35;4.43;;;2.92;;
11496;SDS011;5805;51.542;7.230;2023-04-20T12:30:01;3.97;;;3.30;;
11496;SDS011;5805;51.542;7.230;2023-04-20T12:32:27;2.85;;;2.65;;
11496;SDS011;5805;51.542;7.230;2023-04-20T12:34:53;3.17;;;2.88;;
11496;SDS011;5805;51.542;7.230;2023-04-20T12:37:19;4.13;;;3.67;;
11496;SDS011;5805;51.542;7.230;2023-04-20T12:39:44;4.68;;;3.75;;
11496;SDS011;5805;51.542;7.230;2023-04-20T12:42:10;3.83;;;3.42;;
11496;SDS011;5805;51.542;7.230;2023-04-20T12:44:37;4.78;;;2.90;;
11496;SDS011;5805;51.542;7.230;2023-04-20T12:47:03;3.65;;;3.35;;
11496;SDS011;5805;51.542;7.230;2023-04-20T12:49:28;3.35;;;3.05;;
11496;SDS011;5805;51.542;7.230;2023-04-20T12:51:54;3.40;;;3.10;;
11496;SDS011;5805;51.542;7.230;2023-04-20T12:54:20;4.25;;;3.53;;
11496;SDS011;5805;51.542;7.230;2023-04-20T12:56:45;3.90;;;3.50;;
11496;SDS011;5805;51.542;7.230;2023-04-20T12:59:11;3.50;;;3.20;;
11496;SDS011;5805;51.542;7.230;2023-04-20T13:01:38;3.95;;;3.63;;
11496;SDS011;5805;51.542;7.230;2023-04-20T13:04:04;4.43;;;4.03;;
11496;SDS011;5805;51.542;7.230;2023-04-20T13:06:30;5.70;;;3.67;;
11496;SDS011;5805;51.542;7.230;2023-04-20T13:08:55;4.40;;;3.92;;
11496;SDS011;5805;51.542;7.230;2023-04-20T13:11:21;5.38;;;4.28;;
11496;SDS011;5805;51.542;7.230;2023-04-20T13:13:47;4.22;;;3.83;;
11496;SDS011;5805;51.542;7.230;2023-04-20T13:16:12;4.40;;;3.72;;
11496;SDS011;5805;51.542;7.230;2023-04-20T13:18:39;4.82;;;3.95;;
11496;SDS011;5805;51.542;7.230;2023-04-20T13:21:05;5.13;;;4.47;;
11496;SDS011;5805;51.542;7.230;2023-04-20T13:23:31;6.88;;;4.35;;
11496;SDS011;5805;51.542;7.230;2023-04-20T13:25:57;5.25;;;4.75;;
11496;SDS011;5805;51.542;7.230;2023-04-20T13:28:23;4.88;;;4.25;;
11496;SDS011;5805;51.542;7.230;2023-04-20T13:30:49;6.28;;;4.50;;
11496;SDS011;5805;51.542;7.230;2023-04-20T13:33:14;4.75;;;4.28;;
11496;SDS011;5805;51.542;7.230;2023-04-20T13:35:41;4.38;;;3.97;;
11496;SDS011;5805;51.542;7.230;2023-04-20T13:38:07;6.07;;;5.30;;
11496;SDS011;5805;51.542;7.230;2023-04-20T13:40:33;5.30;;;4.80;;
11496;SDS011;5805;51.542;7.230;2023-04-20T13:42:59;6.47;;;4.93;;
11496;SDS011;5805;51.542;7.230;2023-04-20T13:45:24;7.55;;;5.00;;
11496;SDS011;5805;51.542;7.230;2023-04-20T13:47:50;6.20;;;5.60;;
11496;SDS011;5805;51.542;7.230;2023-04-20T13:50:16;5.78;;;4.78;;
11496;SDS011;5805;51.542;7.230;2023-04-20T13:52:43;5.78;;;5.28;;
11496;SDS011;5805;51.542;7.230;2023-04-20T13:55:09;5.82;;;4.88;;
11496;SDS011;5805;51.542;7.230;2023-04-20T13:57:35;6.38;;;4.35;;
11496;SDS011;5805;51.542;7.230;2023-04-20T14:00:01;6.63;;;4.63;;
11496;SDS011;5805;51.542;7.230;2023-04-20T14:02:27;5.28;;;4.78;;
11496;SDS011;5805;51.542;7.230;2023-04-20T14:04:53;5.22;;;4.40;;
11496;SDS011;5805;51.542;7.230;2023-04-20T14:07:19;4.70;;;4.30;;
11496;SDS011;5805;51.542;7.230;2023-04-20T14:09:46;5.50;;;5.00;;
11496;SDS011;5805;51.542;7.230;2023-04-20T14:12:12;4.88;;;4.40;;
11496;SDS011;5805;51.542;7.230;2023-04-20T14:14:38;5.00;;;4.38;;
11496;SDS011;5805;51.542;7.230;2023-04-20T14:17:04;5.03;;;4.53;;
11496;SDS011;5805;51.542;7.230;2023-04-20T14:19:30;5.15;;;4.65;;
11496;SDS011;5805;51.542;7.230;2023-04-20T14:21:55;4.40;;;4.00;;
11496;SDS011;5805;51.542;7.230;2023-04-20T14:24:21;6.30;;;5.10;;
11496;SDS011;5805;51.542;7.230;2023-04-20T14:26:49;4.50;;;4.10;;
11496;SDS011;5805;51.542;7.230;2023-04-20T14:29:15;7.15;;;4.40;;
11496;SDS011;5805;51.542;7.230;2023-04-20T14:31:40;4.85;;;4.45;;
11496;SDS011;5805;51.542;7.230;2023-04-20T14:34:06;4.25;;;3.85;;
11496;SDS011;5805;51.542;7.230;2023-04-20T14:36:32;4.15;;;3.75;;
11496;SDS011;5805;51.542;7.230;2023-04-20T14:38:58;5.40;;;4.40;;
11496;SDS011;5805;51.542;7.230;2023-04-20T14:41:23;6.95;;;4.05;;
11496;SDS011;5805;51.542;7.230;2023-04-20T14:43:50;5.20;;;4.70;;
11496;SDS011;5805;51.542;7.230;2023-04-20T14:46:17;6.47;;;4.30;;
11496;SDS011;5805;51.542;7.230;2023-04-20T14:48:42;5.30;;;4.05;;
11496;SDS011;5805;51.542;7.230;2023-04-20T14:51:08;5.47;;;4.60;;
11496;SDS011;5805;51.542;7.230;2023-04-20T14:53:34;4.78;;;4.20;;